sensor_id;sensor_type;location;lat;lon;timestamp;temperature;humidity
68865;DHT22;55898;52.196;4.420;2022-08-24T00:00:21;22.50;72.80
68865;DHT22;55898;52.196;4.420;2022-08-24T00:02:47;22.46;72.78
68865;DHT22;55898;52.196;4.420;2022-08-24T00:05:14;22.40;72.87
68865;DHT22;55898;52.196;4.420;2022-08-24T00:07:40;22.39;72.97
68865;DHT22;55898;52.196;4.420;2022-08-24T00:10:08;22.39;72.88
68865;DHT22;55898;52.196;4.420;2022-08-24T00:12:34;22.37;72.99
68865;DHT22;55898;52.196;4.420;2022-08-24T00:15:00;22.34;73.05
68865;DHT22;55898;52.196;4.420;2022-08-24T00:17:26;22.33;73.19
68865;DHT22;55898;52.196;4.420;2022-08-24T00:19:52;22.29;73.19
68865;DHT22;55898;52.196;4.420;2022-08-24T00:22:18;22.27;73.36
68865;DHT22;55898;52.196;4.420;2022-08-24T00:24:45;22.30;73.34
68865;DHT22;55898;52.196;4.420;2022-08-24T00:27:10;22.27;73.50
68865;DHT22;55898;52.196;4.420;2022-08-24T00:29:37;22.24;73.44
68865;DHT22;55898;52.196;4.420;2022-08-24T00:32:03;22.18;73.46
68865;DHT22;55898;52.196;4.420;2022-08-24T00:34:28;22.16;73.64
68865;DHT22;55898;52.196;4.420;2022-08-24T00:36:54;22.13;73.82
68865;DHT22;55898;52.196;4.420;2022-08-24T00:39:20;22.12;73.80
68865;DHT22;55898;52.196;4.420;2022-08-24T00:41:48;22.13;73.79
68865;DHT22;55898;52.196;4.420;2022-08-24T00:44:15;22.06;74.13
68865;DHT22;55898;52.196;4.420;2022-08-24T00:46:52;22.02;74.16
68865;DHT22;55898;52.196;4.420;2022-08-24T00:49:38;22.05;74.12
68865;DHT22;55898;52.196;4.420;2022-08-24T00:52:38;22.05;74.15
68865;DHT22;55898;52.196;4.420;2022-08-24T00:55:10;22.02;74.16
68865;DHT22;55898;52.196;4.420;2022-08-24T00:57:41;22.00;74.26
68865;DHT22;55898;52.196;4.420;2022-08-24T01:00:18;21.96;74.25
68865;DHT22;55898;52.196;4.420;2022-08-24T01:02:47;21.95;74.45
68865;DHT22;55898;52.196;4.420;2022-08-24T01:05:13;21.92;74.42
68865;DHT22;55898;52.196;4.420;2022-08-24T01:07:40;21.90;74.47
68865;DHT22;55898;52.196;4.420;2022-08-24T01:10:11;21.92;74.57
68865;DHT22;55898;52.196;4.420;2022-08-24T01:12:41;21.88;74.49
68865;DHT22;55898;52.196;4.420;2022-08-24T04:47:43;22.09;76.57
68865;DHT22;55898;52.196;4.420;2022-08-24T04:50:10;22.09;76.66
68865;DHT22;55898;52.196;4.420;2022-08-24T04:52:35;22.09;76.70
68865;DHT22;55898;52.196;4.420;2022-08-24T10:46:22;27.21;64.30
68865;DHT22;55898;52.196;4.420;2022-08-24T10:49:19;27.28;64.57
68865;DHT22;55898;52.196;4.420;2022-08-24T10:54:37;27.11;64.18
68865;DHT22;55898;52.196;4.420;2022-08-24T10:57:25;27.03;63.89
68865;DHT22;55898;52.196;4.420;2022-08-24T11:00:13;27.08;63.30
68865;DHT22;55898;52.196;4.420;2022-08-24T11:02:42;27.09;62.96
68865;DHT22;55898;52.196;4.420;2022-08-24T11:07:54;27.01;63.43
68865;DHT22;55898;52.196;4.420;2022-08-24T11:10:26;27.03;63.29
68865;DHT22;55898;52.196;4.420;2022-08-24T11:12:52;26.84;63.54
68865;DHT22;55898;52.196;4.420;2022-08-24T11:15:22;26.80;63.36
68865;DHT22;55898;52.196;4.420;2022-08-24T11:18:03;27.05;63.62
68865;DHT22;55898;52.196;4.420;2022-08-24T11:20:35;27.11;62.68
68865;DHT22;55898;52.196;4.420;2022-08-24T11:23:07;27.09;61.74
68865;DHT22;55898;52.196;4.420;2022-08-24T11:25:37;26.99;62.23
68865;DHT22;55898;52.196;4.420;2022-08-24T11:28:18;27.11;62.72
68865;DHT22;55898;52.196;4.420;2022-08-24T11:30:45;27.25;63.33
68865;DHT22;55898;52.196;4.420;2022-08-24T11:33:30;27.66;62.64
68865;DHT22;55898;52.196;4.420;2022-08-24T11:35:59;28.25;60.97
68865;DHT22;55898;52.196;4.420;2022-08-24T11:38:32;29.34;58.35
68865;DHT22;55898;52.196;4.420;2022-08-24T11:41:04;30.70;54.72
68865;DHT22;55898;52.196;4.420;2022-08-24T11:43:35;32.07;51.16
68865;DHT22;55898;52.196;4.420;2022-08-24T13:32:38;32.01;50.55
68865;DHT22;55898;52.196;4.420;2022-08-24T13:38:30;31.08;52.64
68865;DHT22;55898;52.196;4.420;2022-08-24T13:46:54;30.59;54.48
68865;DHT22;55898;52.196;4.420;2022-08-24T13:52:28;30.64;54.39
68865;DHT22;55898;52.196;4.420;2022-08-24T14:01:02;29.92;55.98
68865;DHT22;55898;52.196;4.420;2022-08-24T14:07:01;29.76;57.57
68865;DHT22;55898;52.196;4.420;2022-08-24T14:12:43;29.68;57.57
68865;DHT22;55898;52.196;4.420;2022-08-24T14:15:18;29.76;57.06
68865;DHT22;55898;52.196;4.420;2022-08-24T14:18:09;29.82;57.20
68865;DHT22;55898;52.196;4.420;2022-08-24T14:20:48;29.69;56.81
68865;DHT22;55898;52.196;4.420;2022-08-24T14:29:32;29.68;56.92
68865;DHT22;55898;52.196;4.420;2022-08-24T14:35:01;30.23;55.58
68865;DHT22;55898;52.196;4.420;2022-08-24T14:40:30;30.99;53.67
68865;DHT22;55898;52.196;4.420;2022-08-24T14:43:00;31.18;52.43
68865;DHT22;55898;52.196;4.420;2022-08-24T14:48:31;31.12;52.69
68865;DHT22;55898;52.196;4.420;2022-08-24T14:51:27;30.95;53.98
68865;DHT22;55898;52.196;4.420;2022-08-24T14:54:15;30.78;54.82
68865;DHT22;55898;52.196;4.420;2022-08-24T15:07:33;31.03;53.24
68865;DHT22;55898;52.196;4.420;2022-08-24T15:10:09;31.02;52.47
68865;DHT22;55898;52.196;4.420;2022-08-24T15:12:59;30.95;51.88
68865;DHT22;55898;52.196;4.420;2022-08-24T15:15:36;30.91;52.42
68865;DHT22;55898;52.196;4.420;2022-08-24T15:21:32;31.01;53.22
68865;DHT22;55898;52.196;4.420;2022-08-24T15:23:51;30.98;52.65
68865;DHT22;55898;52.196;4.420;2022-08-24T15:26:40;31.03;52.73
68865;DHT22;55898;52.196;4.420;2022-08-24T15:29:20;31.08;53.01
68865;DHT22;55898;52.196;4.420;2022-08-24T15:37:05;30.77;52.54
68865;DHT22;55898;52.196;4.420;2022-08-24T15:39:30;30.65;53.55
68865;DHT22;55898;52.196;4.420;2022-08-24T15:41:57;30.65;54.36
68865;DHT22;55898;52.196;4.420;2022-08-24T15:44:29;30.71;54.63
68865;DHT22;55898;52.196;4.420;2022-08-24T15:47:02;30.61;53.48
68865;DHT22;55898;52.196;4.420;2022-08-24T15:49:34;30.59;53.92
68865;DHT22;55898;52.196;4.420;2022-08-24T15:52:08;30.51;54.06
68865;DHT22;55898;52.196;4.420;2022-08-24T15:54:59;30.45;53.96
68865;DHT22;55898;52.196;4.420;2022-08-24T15:57:30;30.37;54.64
68865;DHT22;55898;52.196;4.420;2022-08-24T16:00:08;30.27;54.91
68865;DHT22;55898;52.196;4.420;2022-08-24T16:02:35;30.12;54.48
68865;DHT22;55898;52.196;4.420;2022-08-24T16:10:30;29.96;55.52
68865;DHT22;55898;52.196;4.420;2022-08-24T16:13:18;29.88;54.40
68865;DHT22;55898;52.196;4.420;2022-08-24T16:18:18;29.76;55.55
68865;DHT22;55898;52.196;4.420;2022-08-24T16:20:47;29.76;55.35
68865;DHT22;55898;52.196;4.420;2022-08-24T16:23:27;29.62;56.00
68865;DHT22;55898;52.196;4.420;2022-08-24T16:26:27;29.52;55.99
68865;DHT22;55898;52.196;4.420;2022-08-24T16:28:54;29.51;56.51
68865;DHT22;55898;52.196;4.420;2022-08-24T16:31:43;29.52;57.03
68865;DHT22;55898;52.196;4.420;2022-08-24T16:34:27;29.47;56.61
68865;DHT22;55898;52.196;4.420;2022-08-24T16:36:57;29.47;56.13
68865;DHT22;55898;52.196;4.420;2022-08-24T16:39:23;29.34;55.22
68865;DHT22;55898;52.196;4.420;2022-08-24T16:41:51;29.25;55.07
68865;DHT22;55898;52.196;4.420;2022-08-24T16:44:18;29.23;56.49
68865;DHT22;55898;52.196;4.420;2022-08-24T16:46:43;29.23;57.00
68865;DHT22;55898;52.196;4.420;2022-08-24T16:49:09;29.24;55.55
68865;DHT22;55898;52.196;4.420;2022-08-24T16:51:34;29.23;56.21
68865;DHT22;55898;52.196;4.420;2022-08-24T16:54:00;29.20;56.23
68865;DHT22;55898;52.196;4.420;2022-08-24T16:56:26;29.00;56.32
68865;DHT22;55898;52.196;4.420;2022-08-24T16:58:52;29.00;56.30
68865;DHT22;55898;52.196;4.420;2022-08-24T17:01:18;28.99;56.06
68865;DHT22;55898;52.196;4.420;2022-08-24T17:03:44;29.03;56.63
68865;DHT22;55898;52.196;4.420;2022-08-24T17:06:10;29.03;55.80
68865;DHT22;55898;52.196;4.420;2022-08-24T17:08:37;29.03;56.50
68865;DHT22;55898;52.196;4.420;2022-08-24T17:11:04;29.04;56.15
68865;DHT22;55898;52.196;4.420;2022-08-24T17:13:30;29.06;55.63
68865;DHT22;55898;52.196;4.420;2022-08-24T17:15:57;29.07;56.00
68865;DHT22;55898;52.196;4.420;2022-08-24T17:18:24;29.04;55.82
68865;DHT22;55898;52.196;4.420;2022-08-24T17:20:50;29.04;55.85
68865;DHT22;55898;52.196;4.420;2022-08-24T17:23:15;29.06;55.96
68865;DHT22;55898;52.196;4.420;2022-08-24T17:25:42;29.04;56.37
68865;DHT22;55898;52.196;4.420;2022-08-24T17:28:12;29.04;56.25
68865;DHT22;55898;52.196;4.420;2022-08-24T17:30:40;29.04;56.32
68865;DHT22;55898;52.196;4.420;2022-08-24T17:33:06;28.99;57.05
68865;DHT22;55898;52.196;4.420;2022-08-24T17:35:32;28.99;57.63
68865;DHT22;55898;52.196;4.420;2022-08-24T17:37:59;28.96;58.50
68865;DHT22;55898;52.196;4.420;2022-08-24T17:40:25;28.87;59.04
68865;DHT22;55898;52.196;4.420;2022-08-24T17:42:53;28.83;59.19
68865;DHT22;55898;52.196;4.420;2022-08-24T17:45:19;28.82;59.20
68865;DHT22;55898;52.196;4.420;2022-08-24T17:47:47;28.76;59.11
68865;DHT22;55898;52.196;4.420;2022-08-24T17:50:14;28.70;59.37
68865;DHT22;55898;52.196;4.420;2022-08-24T17:52:42;28.66;59.32
68865;DHT22;55898;52.196;4.420;2022-08-24T17:55:10;28.56;59.31
68865;DHT22;55898;52.196;4.420;2022-08-24T17:57:36;28.52;59.84
68865;DHT22;55898;52.196;4.420;2022-08-24T18:00:04;28.45;59.92
68865;DHT22;55898;52.196;4.420;2022-08-24T18:02:30;28.35;60.14
68865;DHT22;55898;52.196;4.420;2022-08-24T18:04:56;28.25;60.28
68865;DHT22;55898;52.196;4.420;2022-08-24T18:07:22;28.28;60.69
68865;DHT22;55898;52.196;4.420;2022-08-24T18:09:54;28.24;60.71
68865;DHT22;55898;52.196;4.420;2022-08-24T18:12:23;28.14;60.84
68865;DHT22;55898;52.196;4.420;2022-08-24T18:14:49;28.14;61.30
68865;DHT22;55898;52.196;4.420;2022-08-24T18:17:19;28.12;61.02
68865;DHT22;55898;52.196;4.420;2022-08-24T18:19:47;28.05;61.30
68865;DHT22;55898;52.196;4.420;2022-08-24T18:22:14;28.04;61.20
68865;DHT22;55898;52.196;4.420;2022-08-24T18:24:40;28.01;61.34
68865;DHT22;55898;52.196;4.420;2022-08-24T18:27:18;27.97;61.17
68865;DHT22;55898;52.196;4.420;2022-08-24T18:29:45;27.96;61.36
68865;DHT22;55898;52.196;4.420;2022-08-24T18:32:11;27.93;61.25
68865;DHT22;55898;52.196;4.420;2022-08-24T18:34:38;27.90;61.47
68865;DHT22;55898;52.196;4.420;2022-08-24T18:37:04;27.88;61.54
68865;DHT22;55898;52.196;4.420;2022-08-24T18:39:30;27.86;61.63
68865;DHT22;55898;52.196;4.420;2022-08-24T18:41:59;27.86;61.51
68865;DHT22;55898;52.196;4.420;2022-08-24T18:44:25;27.83;61.32
68865;DHT22;55898;52.196;4.420;2022-08-24T18:46:51;27.81;61.52
68865;DHT22;55898;52.196;4.420;2022-08-24T18:49:18;27.81;61.41
68865;DHT22;55898;52.196;4.420;2022-08-24T18:51:45;27.76;61.21
68865;DHT22;55898;52.196;4.420;2022-08-24T18:54:18;27.70;61.38
68865;DHT22;55898;52.196;4.420;2022-08-24T18:56:45;27.61;61.73
68865;DHT22;55898;52.196;4.420;2022-08-24T18:59:13;27.61;61.97
68865;DHT22;55898;52.196;4.420;2022-08-24T19:01:41;27.57;62.16
68865;DHT22;55898;52.196;4.420;2022-08-24T19:04:25;27.56;62.28
68865;DHT22;55898;52.196;4.420;2022-08-24T19:06:50;27.54;62.29
68865;DHT22;55898;52.196;4.420;2022-08-24T19:09:17;27.53;62.51
68865;DHT22;55898;52.196;4.420;2022-08-24T19:11:43;27.49;62.73
68865;DHT22;55898;52.196;4.420;2022-08-24T19:14:09;27.45;62.78
68865;DHT22;55898;52.196;4.420;2022-08-24T19:16:35;27.43;62.88
68865;DHT22;55898;52.196;4.420;2022-08-24T19:19:01;27.33;63.34
68865;DHT22;55898;52.196;4.420;2022-08-24T19:21:32;27.28;63.40
68865;DHT22;55898;52.196;4.420;2022-08-24T19:24:00;27.25;63.90
68865;DHT22;55898;52.196;4.420;2022-08-24T19:26:27;27.18;63.87
68865;DHT22;55898;52.196;4.420;2022-08-24T19:28:53;27.15;64.41
68865;DHT22;55898;52.196;4.420;2022-08-24T19:31:23;27.13;64.50
68865;DHT22;55898;52.196;4.420;2022-08-24T19:33:50;27.12;64.69
68865;DHT22;55898;52.196;4.420;2022-08-24T19:36:16;27.09;64.99
68865;DHT22;55898;52.196;4.420;2022-08-24T19:38:42;27.12;64.85
68865;DHT22;55898;52.196;4.420;2022-08-24T19:41:08;27.08;65.13
68865;DHT22;55898;52.196;4.420;2022-08-24T19:43:35;27.06;65.37
68865;DHT22;55898;52.196;4.420;2022-08-24T19:46:21;27.05;65.49
68865;DHT22;55898;52.196;4.420;2022-08-24T19:48:47;27.03;65.55
68865;DHT22;55898;52.196;4.420;2022-08-24T19:51:13;26.98;65.88
68865;DHT22;55898;52.196;4.420;2022-08-24T19:53:39;26.92;66.23
68865;DHT22;55898;52.196;4.420;2022-08-24T19:56:07;26.88;66.63
68865;DHT22;55898;52.196;4.420;2022-08-24T19:58:46;26.82;67.05
68865;DHT22;55898;52.196;4.420;2022-08-24T20:01:26;26.78;67.31
68865;DHT22;55898;52.196;4.420;2022-08-24T20:03:52;26.75;67.49
68865;DHT22;55898;52.196;4.420;2022-08-24T20:06:20;26.70;67.73
68865;DHT22;55898;52.196;4.420;2022-08-24T20:08:48;26.63;68.14
68865;DHT22;55898;52.196;4.420;2022-08-24T20:11:15;26.61;68.29
68865;DHT22;55898;52.196;4.420;2022-08-24T20:13:41;26.55;68.53
68865;DHT22;55898;52.196;4.420;2022-08-24T20:16:09;26.55;68.71
68865;DHT22;55898;52.196;4.420;2022-08-24T20:18:36;26.53;68.85
68865;DHT22;55898;52.196;4.420;2022-08-24T20:21:03;26.53;68.93
68865;DHT22;55898;52.196;4.420;2022-08-24T20:23:29;26.51;68.95
68865;DHT22;55898;52.196;4.420;2022-08-24T20:25:57;26.44;69.05
68865;DHT22;55898;52.196;4.420;2022-08-24T20:28:39;26.44;69.16
68865;DHT22;55898;52.196;4.420;2022-08-24T20:31:06;26.40;69.26
68865;DHT22;55898;52.196;4.420;2022-08-24T20:33:32;26.29;69.48
68865;DHT22;55898;52.196;4.420;2022-08-24T20:35:57;26.24;69.65
68865;DHT22;55898;52.196;4.420;2022-08-24T20:38:24;26.17;69.79
68865;DHT22;55898;52.196;4.420;2022-08-24T20:40:51;26.09;70.12
68865;DHT22;55898;52.196;4.420;2022-08-24T20:43:17;26.05;70.26
68865;DHT22;55898;52.196;4.420;2022-08-24T20:45:44;25.99;70.23
68865;DHT22;55898;52.196;4.420;2022-08-24T20:48:12;26.02;70.26
68865;DHT22;55898;52.196;4.420;2022-08-24T20:50:39;25.99;70.22
68865;DHT22;55898;52.196;4.420;2022-08-24T20:53:08;26.00;70.15
68865;DHT22;55898;52.196;4.420;2022-08-24T20:55:40;25.97;70.19
68865;DHT22;55898;52.196;4.420;2022-08-24T20:58:06;25.96;70.19
68865;DHT22;55898;52.196;4.420;2022-08-24T21:00:32;25.97;70.20
68865;DHT22;55898;52.196;4.420;2022-08-24T21:02:58;25.96;70.07
68865;DHT22;55898;52.196;4.420;2022-08-24T21:05:24;25.93;70.09
68865;DHT22;55898;52.196;4.420;2022-08-24T21:07:51;25.95;70.07
68865;DHT22;55898;52.196;4.420;2022-08-24T21:10:19;25.96;70.05
68865;DHT22;55898;52.196;4.420;2022-08-24T21:12:46;25.92;69.92
68865;DHT22;55898;52.196;4.420;2022-08-24T21:15:13;25.82;70.25
68865;DHT22;55898;52.196;4.420;2022-08-24T21:17:42;25.81;70.44
68865;DHT22;55898;52.196;4.420;2022-08-24T21:20:10;25.76;70.36
68865;DHT22;55898;52.196;4.420;2022-08-24T21:22:35;25.69;70.60
68865;DHT22;55898;52.196;4.420;2022-08-24T21:25:06;25.71;70.53
68865;DHT22;55898;52.196;4.420;2022-08-24T21:27:34;25.68;70.82
68865;DHT22;55898;52.196;4.420;2022-08-24T21:30:01;25.66;70.81
68865;DHT22;55898;52.196;4.420;2022-08-24T21:32:26;25.68;70.86
68865;DHT22;55898;52.196;4.420;2022-08-24T21:35:11;25.64;70.78
68865;DHT22;55898;52.196;4.420;2022-08-24T21:37:36;25.66;71.03
68865;DHT22;55898;52.196;4.420;2022-08-24T21:40:04;25.65;70.92
68865;DHT22;55898;52.196;4.420;2022-08-24T21:42:31;25.64;71.02
68865;DHT22;55898;52.196;4.420;2022-08-24T21:44:57;25.64;71.09
68865;DHT22;55898;52.196;4.420;2022-08-24T21:47:23;25.62;71.09
68865;DHT22;55898;52.196;4.420;2022-08-24T21:49:48;25.62;71.18
68865;DHT22;55898;52.196;4.420;2022-08-24T21:52:14;25.61;71.38
68865;DHT22;55898;52.196;4.420;2022-08-24T21:54:39;25.54;71.47
68865;DHT22;55898;52.196;4.420;2022-08-24T21:57:05;25.47;71.83
68865;DHT22;55898;52.196;4.420;2022-08-24T21:59:32;25.44;72.04
68865;DHT22;55898;52.196;4.420;2022-08-24T22:01:59;25.39;72.30
68865;DHT22;55898;52.196;4.420;2022-08-24T22:04:24;25.39;72.38
68865;DHT22;55898;52.196;4.420;2022-08-24T22:06:50;25.39;72.42
68865;DHT22;55898;52.196;4.420;2022-08-24T22:09:15;25.31;72.70
68865;DHT22;55898;52.196;4.420;2022-08-24T22:11:41;25.27;72.99
68865;DHT22;55898;52.196;4.420;2022-08-24T22:14:07;25.21;73.30
68865;DHT22;55898;52.196;4.420;2022-08-24T22:16:33;25.13;73.65
68865;DHT22;55898;52.196;4.420;2022-08-24T22:18:58;25.13;73.74
68865;DHT22;55898;52.196;4.420;2022-08-24T22:21:29;25.14;73.78
68865;DHT22;55898;52.196;4.420;2022-08-24T22:23:57;25.13;73.82
68865;DHT22;55898;52.196;4.420;2022-08-24T22:26:24;25.13;73.86
68865;DHT22;55898;52.196;4.420;2022-08-24T22:28:50;25.14;73.88
68865;DHT22;55898;52.196;4.420;2022-08-24T22:31:20;25.13;73.97
68865;DHT22;55898;52.196;4.420;2022-08-24T22:33:47;25.13;74.03
68865;DHT22;55898;52.196;4.420;2022-08-24T22:36:16;25.14;74.01
68865;DHT22;55898;52.196;4.420;2022-08-24T22:38:42;25.18;73.95
68865;DHT22;55898;52.196;4.420;2022-08-24T22:41:09;25.20;73.88
68865;DHT22;55898;52.196;4.420;2022-08-24T22:43:35;25.21;73.86
68865;DHT22;55898;52.196;4.420;2022-08-24T22:46:19;25.21;73.80
68865;DHT22;55898;52.196;4.420;2022-08-24T22:48:46;25.21;73.73
68865;DHT22;55898;52.196;4.420;2022-08-24T22:51:13;25.18;73.79
68865;DHT22;55898;52.196;4.420;2022-08-24T22:53:40;25.18;73.74
68865;DHT22;55898;52.196;4.420;2022-08-24T22:56:20;25.18;73.84
68865;DHT22;55898;52.196;4.420;2022-08-24T22:58:47;25.16;73.92
68865;DHT22;55898;52.196;4.420;2022-08-24T23:01:18;25.17;73.88
68865;DHT22;55898;52.196;4.420;2022-08-24T23:03:44;25.14;73.98
68865;DHT22;55898;52.196;4.420;2022-08-24T23:06:09;25.06;74.17
68865;DHT22;55898;52.196;4.420;2022-08-24T23:08:35;25.00;74.45
68865;DHT22;55898;52.196;4.420;2022-08-24T23:11:00;24.86;74.81
68865;DHT22;55898;52.196;4.420;2022-08-24T23:13:26;24.84;75.00
68865;DHT22;55898;52.196;4.420;2022-08-24T23:15:51;24.82;75.06
68865;DHT22;55898;52.196;4.420;2022-08-24T23:18:18;24.80;75.09
68865;DHT22;55898;52.196;4.420;2022-08-24T23:21:02;24.80;75.19
68865;DHT22;55898;52.196;4.420;2022-08-24T23:23:27;24.77;75.12
68865;DHT22;55898;52.196;4.420;2022-08-24T23:25:53;24.76;75.22
68865;DHT22;55898;52.196;4.420;2022-08-24T23:28:20;24.76;75.25
68865;DHT22;55898;52.196;4.420;2022-08-24T23:30:45;24.75;75.24
68865;DHT22;55898;52.196;4.420;2022-08-24T23:33:11;24.75;75.27
68865;DHT22;55898;52.196;4.420;2022-08-24T23:35:36;24.73;75.26
68865;DHT22;55898;52.196;4.420;2022-08-24T23:38:02;24.72;75.32
68865;DHT22;55898;52.196;4.420;2022-08-24T23:40:27;24.66;75.44
68865;DHT22;55898;52.196;4.420;2022-08-24T23:42:53;24.65;75.53
68865;DHT22;55898;52.196;4.420;2022-08-24T23:45:18;24.63;75.47
68865;DHT22;55898;52.196;4.420;2022-08-24T23:47:44;24.59;75.52
68865;DHT22;55898;52.196;4.420;2022-08-24T23:50:10;24.59;75.61
68865;DHT22;55898;52.196;4.420;2022-08-24T23:52:35;24.58;75.57
68865;DHT22;55898;52.196;4.420;2022-08-24T23:55:02;24.52;75.65
68865;DHT22;55898;52.196;4.420;2022-08-24T23:57:28;24.49;75.80
68865;DHT22;55898;52.196;4.420;2022-08-24T23:59:59;24.48;75.92
